createdAt,value
2023-08-15T00:01:19.270Z,155454.38
2023-08-15T00:03:49.321Z,155441.25
2023-08-15T00:06:18.517Z,155438.66
2023-08-15T00:08:47.205Z,155428.16
2023-08-15T00:11:17.463Z,155430.78
2023-08-15T00:13:47.273Z,155420.25
2023-08-15T00:16:15.626Z,155390.13
2023-08-15T00:18:44.451Z,155386.19
2023-08-15T00:21:12.361Z,155379.66
2023-08-15T00:23:40.421Z,155380.97
2023-08-15T00:26:09.795Z,155394.06
2023-08-15T00:28:39.205Z,155378.34
2023-08-15T00:31:13.293Z,155398.00
2023-08-15T00:33:42.868Z,155366.53
2023-08-15T00:36:11.945Z,155343.00
2023-08-15T00:38:46.493Z,155324.66
2023-08-15T00:41:19.511Z,155344.31
2023-08-15T00:44:17.236Z,155349.56
2023-08-15T00:46:45.757Z,155343.00
2023-08-15T00:49:36.536Z,155362.63
2023-08-15T00:52:07.264Z,155353.47
2023-08-15T00:54:35.977Z,155350.88
2023-08-15T00:57:12.434Z,155378.34
2023-08-15T00:59:45.901Z,155363.91
2023-08-15T01:02:15.070Z,155360.00
2023-08-15T01:04:45.742Z,155373.09
2023-08-15T01:07:14.149Z,155375.72
2023-08-15T01:09:42.925Z,155354.78
2023-08-15T01:12:21.852Z,155362.63
2023-08-15T01:14:54.819Z,155391.44
2023-08-15T01:17:33.367Z,155387.53
2023-08-15T01:20:08.540Z,155388.81
2023-08-15T01:22:38.944Z,155375.72
2023-08-15T01:25:09.141Z,155360.00
2023-08-15T01:27:37.204Z,155346.94
2023-08-15T01:30:05.491Z,155340.38
2023-08-15T01:32:40.405Z,155312.84
2023-08-15T01:35:22.753Z,155323.34
2023-08-15T01:37:57.224Z,155299.78
2023-08-15T01:40:31.162Z,155276.19
2023-08-15T01:43:01.360Z,155263.09
2023-08-15T01:45:30.284Z,155261.78
2023-08-15T01:47:58.502Z,155305.00
2023-08-15T01:50:26.685Z,155263.09
2023-08-15T01:52:57.449Z,155295.88
2023-08-15T01:55:27.260Z,155294.56
2023-08-15T01:57:55.127Z,155288.00
2023-08-15T02:00:22.998Z,155349.56
2023-08-15T02:02:51.499Z,155312.84
2023-08-15T02:05:19.757Z,155315.47
2023-08-15T02:07:47.979Z,155289.31
2023-08-15T02:10:16.969Z,155325.97
2023-08-15T02:12:47.491Z,155327.28
2023-08-15T02:15:16.214Z,155337.75
2023-08-15T02:17:44.295Z,155366.53
2023-08-15T02:20:13.722Z,155354.78
2023-08-15T02:22:42.780Z,155344.31
2023-08-15T02:25:11.030Z,155348.25
2023-08-15T02:27:39.216Z,155329.91
2023-08-15T02:30:10.421Z,155312.84
2023-08-15T02:32:38.412Z,155310.22
2023-08-15T02:35:08.526Z,155328.56
2023-08-15T02:37:36.808Z,155336.44
2023-08-15T02:40:12.748Z,155325.97
2023-08-15T02:42:40.820Z,155361.28
2023-08-15T02:45:15.015Z,155362.63
2023-08-15T02:47:46.233Z,155360.00
2023-08-15T02:50:15.439Z,155352.19
2023-08-15T02:52:44.030Z,155375.72
2023-08-15T02:55:12.151Z,155383.59
2023-08-15T02:57:40.306Z,155387.53
2023-08-15T03:00:14.336Z,155365.22
2023-08-15T03:02:42.631Z,155362.63
2023-08-15T03:05:10.784Z,155360.00
2023-08-15T03:07:38.824Z,155333.81
2023-08-15T03:10:07.791Z,155394.06
2023-08-15T03:12:36.781Z,155407.19
2023-08-15T03:15:06.533Z,155463.56
2023-08-15T03:17:36.361Z,155485.78
2023-08-15T03:20:09.023Z,155498.91
2023-08-15T03:22:37.117Z,155535.56
2023-08-15T03:25:05.498Z,155572.28
2023-08-15T03:27:33.483Z,155627.38
2023-08-15T03:30:01.508Z,155656.19
2023-08-15T03:32:29.644Z,155639.13
2023-08-15T03:34:59.509Z,155627.38
2023-08-15T03:37:27.800Z,155616.88
2023-08-15T03:39:56.923Z,155645.69
2023-08-15T03:42:25.400Z,155598.47
2023-08-15T03:44:53.378Z,155614.25
2023-08-15T03:47:21.320Z,155640.44
2023-08-15T03:49:49.447Z,155609.03
2023-08-15T03:52:18.754Z,155602.47
2023-08-15T03:54:46.724Z,155685.06
2023-08-15T03:57:16.117Z,155650.94
2023-08-15T03:59:44.258Z,155641.75
2023-08-15T04:02:12.424Z,155689.00
2023-08-15T04:04:41.028Z,155670.63
2023-08-15T04:07:08.912Z,155648.31
2023-08-15T04:09:39.845Z,155631.31
2023-08-15T04:12:08.177Z,155704.69
2023-08-15T04:14:36.201Z,155612.94
2023-08-15T04:17:06.697Z,155650.94
2023-08-15T04:19:34.647Z,155631.31
2023-08-15T04:22:02.661Z,155624.75
2023-08-15T04:24:30.791Z,155650.94
2023-08-15T04:27:02.967Z,155585.34
2023-08-15T04:29:31.163Z,155601.09
2023-08-15T04:31:59.364Z,155573.59
2023-08-15T04:34:29.466Z,155544.75
2023-08-15T04:36:58.516Z,155518.56
2023-08-15T04:39:28.164Z,155553.94
2023-08-15T04:41:56.095Z,155576.22
2023-08-15T04:44:25.624Z,155546.06
2023-08-15T04:46:54.803Z,155654.88
2023-08-15T04:49:24.915Z,155650.94
2023-08-15T04:51:53.054Z,155647.00
2023-08-15T04:54:21.356Z,155633.94
2023-08-15T04:56:50.308Z,155523.81
2023-08-15T04:59:18.960Z,155577.53
2023-08-15T05:01:48.524Z,155570.97
2023-08-15T05:04:16.546Z,155602.47
2023-08-15T05:06:45.210Z,155598.47
2023-08-15T05:09:13.344Z,155544.75
2023-08-15T05:11:41.506Z,155556.56
2023-08-15T05:14:13.009Z,155612.94
2023-08-15T05:16:40.923Z,155670.63
2023-08-15T05:19:12.323Z,155669.31
2023-08-15T05:21:42.149Z,155626.06
2023-08-15T05:24:10.567Z,155702.06
2023-08-15T05:26:38.508Z,155679.81
2023-08-15T05:29:06.606Z,155747.97
2023-08-15T05:31:34.902Z,155719.13
2023-08-15T05:34:02.964Z,155772.84
2023-08-15T05:36:33.434Z,155755.81
2023-08-15T05:39:05.347Z,155784.72
2023-08-15T05:41:34.635Z,155821.41
2023-08-15T05:44:02.673Z,155817.47
2023-08-15T05:46:31.971Z,155768.91
2023-08-15T05:48:59.986Z,155774.16
2023-08-15T05:51:28.208Z,155685.06
2023-08-15T05:54:03.119Z,155766.28
2023-08-15T05:56:31.218Z,155741.41
2023-08-15T05:59:06.230Z,155716.50
2023-08-15T06:01:41.873Z,155683.75
2023-08-15T06:04:10.505Z,155627.38
2023-08-15T06:06:38.614Z,155767.59
2023-08-15T06:09:08.099Z,155635.25
2023-08-15T06:11:38.556Z,155619.50
2023-08-15T06:14:06.865Z,155618.19
2023-08-15T06:16:36.965Z,155573.59
2023-08-15T06:19:05.192Z,155653.56
2023-08-15T06:21:33.358Z,155762.34
2023-08-15T06:24:01.265Z,155696.81
2023-08-15T06:26:33.253Z,155716.50
2023-08-15T06:29:01.250Z,155881.72
2023-08-15T06:31:30.283Z,155816.16
2023-08-15T06:33:58.326Z,155796.53
2023-08-15T06:36:27.376Z,155951.31
2023-08-15T06:38:56.425Z,156182.28
2023-08-15T06:41:26.431Z,156351.66
2023-08-15T06:43:59.070Z,156427.81
2023-08-15T06:46:27.091Z,156509.28
2023-08-15T06:49:09.147Z,156740.59
2023-08-15T06:51:38.450Z,156698.50
2023-08-15T06:54:14.590Z,156844.41
2023-08-15T06:57:01.965Z,156561.81
2023-08-15T06:59:46.572Z,156498.75
2023-08-15T07:02:21.014Z,156727.41
2023-08-15T07:04:54.643Z,156502.69
2023-08-15T07:07:23.173Z,156536.81
2023-08-15T07:09:53.232Z,156703.72
2023-08-15T07:12:52.826Z,156643.31
2023-08-15T07:19:16.247Z,156644.63
2023-08-15T07:21:44.616Z,156697.19
2023-08-15T07:24:23.824Z,156549.97
2023-08-15T07:31:08.684Z,157079.88
2023-08-15T07:33:41.804Z,157268.00
2023-08-15T07:36:28.881Z,157300.94
2023-08-15T07:39:08.158Z,156753.75
2023-08-15T07:42:07.296Z,156655.09
2023-08-15T07:45:07.403Z,156443.59
2023-08-15T07:47:47.270Z,156159.94
2023-08-15T07:50:23.404Z,156183.59
2023-08-15T07:53:03.702Z,156236.06
2023-08-15T07:55:38.477Z,156653.78
2023-08-15T07:58:07.817Z,156389.72
2023-08-15T08:00:36.513Z,156559.16
2023-08-15T08:03:08.887Z,156653.78
2023-08-15T08:05:38.152Z,156887.84
2023-08-15T08:08:09.777Z,156927.25
2023-08-15T08:10:44.244Z,157103.53
2023-08-15T08:13:33.272Z,157099.56
2023-08-15T08:16:01.925Z,156991.69
2023-08-15T08:18:30.148Z,156879.94
2023-08-15T09:05:12.181Z,157577.44
2023-08-15T09:08:11.961Z,157615.66
2023-08-15T09:13:56.484Z,157299.63
2023-08-15T09:16:27.784Z,157573.47
2023-08-15T09:21:55.032Z,157785.59
2023-08-15T09:24:49.740Z,157306.25
2023-08-15T09:31:01.429Z,157740.81
2023-08-15T09:43:04.894Z,157004.84
2023-08-15T09:45:34.182Z,156686.66
2023-08-15T09:48:07.272Z,156617.03
2023-08-15T09:51:12.064Z,156744.53
2023-08-15T09:54:02.308Z,156807.63
2023-08-15T10:05:46.919Z,156638.06
2023-08-15T10:08:34.548Z,156532.94
2023-08-15T10:11:49.433Z,156585.53
2023-08-15T10:21:51.194Z,157519.50
2023-08-15T10:24:20.178Z,157696.00
2023-08-15T10:26:51.237Z,157377.28
2023-08-15T10:29:19.450Z,157570.84
2023-08-15T10:32:10.433Z,157651.25
2023-08-15T10:34:41.069Z,157570.84
2023-08-15T10:37:32.942Z,157540.59
2023-08-15T10:40:16.737Z,157717.09
2023-08-15T10:43:12.823Z,157877.91
2023-08-15T10:45:49.662Z,157868.66
2023-08-15T10:48:47.513Z,157435.19
2023-08-15T10:51:33.845Z,157329.91
2023-08-15T10:54:12.451Z,157277.22
2023-08-15T10:56:42.953Z,157445.78
2023-08-15T10:59:14.158Z,157268.00
2023-08-15T11:01:44.576Z,157024.66
2023-08-15T11:08:29.643Z,157149.59
2023-08-15T11:14:03.424Z,157588.03
2023-08-15T11:16:38.750Z,157352.28
2023-08-15T11:19:07.461Z,157414.16
2023-08-15T11:24:37.407Z,158463.41
2023-08-15T11:27:27.824Z,158146.84
2023-08-15T11:43:37.920Z,157751.38
2023-08-15T11:46:52.882Z,157593.31
2023-08-15T11:52:51.634Z,157258.84
2023-08-15T11:55:30.914Z,157119.31
2023-08-15T12:11:33.079Z,157597.25
2023-08-15T12:14:42.137Z,157544.53
2023-08-15T12:17:39.073Z,157543.22
2023-08-15T12:54:18.511Z,157029.91
2023-08-15T12:56:59.181Z,157266.69
2023-08-15T12:59:31.907Z,157319.41
2023-08-15T13:05:49.077Z,157182.50
2023-08-15T13:08:30.740Z,156904.94
2023-08-15T13:11:30.929Z,157035.16
2023-08-15T14:02:41.442Z,157908.19
2023-08-15T14:05:58.075Z,157252.25
2023-08-15T14:09:04.240Z,157053.56
2023-08-15T14:11:42.550Z,156860.22
2023-08-15T14:21:15.642Z,157211.44
2023-08-15T14:23:49.165Z,157336.50
2023-08-15T14:26:18.601Z,157378.59
2023-08-15T14:28:47.400Z,157237.75
2023-08-15T14:31:16.017Z,157274.59
2023-08-15T14:33:52.528Z,157252.25
2023-08-15T14:36:21.843Z,157522.16
2023-08-15T14:38:55.188Z,157207.53
2023-08-15T14:41:25.153Z,157269.31
2023-08-15T14:43:55.561Z,157754.00
2023-08-15T14:46:26.928Z,158112.53
2023-08-15T14:48:57.227Z,158020.25
2023-08-15T14:51:32.069Z,157393.06
2023-08-15T14:54:03.110Z,157582.75
2023-08-15T14:56:31.593Z,157572.16
2023-08-15T14:59:03.740Z,158084.84
2023-08-15T15:01:33.626Z,157801.41
2023-08-15T15:04:03.470Z,157889.72
2023-08-15T15:06:35.573Z,157927.97
2023-08-15T15:09:03.994Z,158156.09
2023-08-15T15:11:32.701Z,157937.19
2023-08-15T15:14:02.214Z,157962.22
2023-08-15T15:16:30.556Z,157984.69
2023-08-15T15:18:59.214Z,158149.47
2023-08-15T15:21:29.378Z,157591.97
2023-08-15T15:23:57.633Z,157670.97
2023-08-15T15:26:26.203Z,157423.38
2023-08-15T15:28:54.574Z,157145.66
2023-08-15T15:31:24.050Z,156968.06
2023-08-15T15:33:52.077Z,156953.56
2023-08-15T15:36:20.192Z,157439.13
2023-08-15T15:38:54.668Z,157385.16
2023-08-15T15:41:23.541Z,157541.91
2023-08-15T15:43:56.647Z,157229.88
2023-08-15T15:46:25.160Z,157289.06
2023-08-15T15:48:54.236Z,157472.13
2023-08-15T15:51:22.736Z,157877.91
2023-08-15T15:53:53.415Z,157767.19
2023-08-15T15:56:27.825Z,157079.88
2023-08-15T15:58:55.945Z,157576.13
2023-08-15T16:01:24.446Z,157988.63
2023-08-15T16:03:52.875Z,157523.47
2023-08-15T16:06:23.304Z,157361.50
2023-08-15T16:09:22.536Z,157082.50
2023-08-15T16:12:06.270Z,157077.25
2023-08-15T16:14:36.276Z,157611.69
2023-08-15T16:17:05.033Z,157827.75
2023-08-15T16:19:35.947Z,158297.19
2023-08-15T16:22:11.218Z,157835.66
2023-08-15T16:38:35.886Z,157441.78
2023-08-15T16:41:03.909Z,157887.09
2023-08-15T16:43:32.232Z,157458.94
2023-08-15T16:46:00.285Z,157502.38
2023-08-15T16:48:29.058Z,157522.16
2023-08-15T16:50:56.970Z,157320.69
2023-08-15T16:53:25.195Z,157506.31
2023-08-15T16:55:54.606Z,157432.56
2023-08-15T16:58:22.672Z,157406.25
2023-08-15T17:00:52.338Z,157851.53
2023-08-15T17:03:21.159Z,157090.41
2023-08-15T17:05:50.488Z,157372.06
2023-08-15T17:08:18.462Z,157277.22
2023-08-15T17:10:46.550Z,157282.50
2023-08-15T17:13:15.975Z,156958.84
2023-08-15T17:15:43.859Z,156958.84
2023-08-15T17:18:11.769Z,156802.38
2023-08-15T17:20:46.710Z,156682.72
2023-08-15T17:23:14.650Z,156527.66
2023-08-15T17:25:42.960Z,156739.28
2023-08-15T17:28:11.621Z,157103.53
2023-08-15T17:30:41.188Z,157315.47
2023-08-15T17:33:09.204Z,157054.88
2023-08-15T17:35:37.440Z,156824.69
2023-08-15T17:38:06.592Z,156937.78
2023-08-15T17:40:35.762Z,157065.41
2023-08-15T17:43:03.849Z,156986.44
2023-08-15T17:45:31.788Z,156991.69
2023-08-15T17:48:01.304Z,156802.38
2023-08-15T17:50:29.493Z,157054.88
2023-08-15T17:52:57.742Z,156919.41
2023-08-15T17:55:27.159Z,156965.41
2023-08-15T17:57:55.662Z,157164.09
2023-08-15T18:00:24.811Z,156898.34
2023-08-15T18:02:56.007Z,157032.53
2023-08-15T18:05:26.858Z,157095.63
2023-08-15T18:07:54.952Z,156686.66
2023-08-15T18:10:24.628Z,156614.41
2023-08-15T18:12:52.753Z,156856.25
2023-08-15T18:15:25.006Z,156870.72
2023-08-15T18:17:54.924Z,156525.03
2023-08-15T18:20:36.518Z,156542.09
2023-08-15T18:23:05.628Z,156254.41
2023-08-15T18:25:33.933Z,156212.44
2023-08-15T18:28:03.536Z,156052.31
2023-08-15T18:30:32.477Z,156020.84
2023-08-15T18:33:01.193Z,156016.91
2023-08-15T18:35:30.061Z,155963.13
2023-08-15T18:37:59.758Z,155908.00
2023-08-15T18:40:29.934Z,155908.00
2023-08-15T18:43:00.272Z,155863.34
2023-08-15T18:45:32.746Z,155841.09
2023-08-15T18:48:01.528Z,155820.09
2023-08-15T18:50:30.129Z,155796.53
2023-08-15T18:53:01.030Z,155776.84
2023-08-15T18:55:29.202Z,155713.88
2023-08-15T18:58:12.878Z,155700.75
2023-08-15T19:00:45.526Z,155635.25
2023-08-15T19:03:14.616Z,155584.06
2023-08-15T19:05:47.950Z,155590.59
2023-08-15T19:08:19.261Z,155530.31
2023-08-15T19:10:47.420Z,155494.97
2023-08-15T19:13:22.302Z,155451.75
2023-08-15T19:15:51.443Z,155430.78
2023-08-15T19:18:19.684Z,155413.72
2023-08-15T19:20:48.635Z,155396.69
2023-08-15T19:23:27.781Z,155377.03
2023-08-15T19:25:58.301Z,155354.78
2023-08-15T19:28:28.576Z,155363.91
2023-08-15T19:30:56.923Z,155324.66
2023-08-15T19:33:25.604Z,155281.44
2023-08-15T19:36:01.337Z,155281.44
2023-08-15T19:38:39.324Z,155265.72
2023-08-15T19:41:07.677Z,155232.97
2023-08-15T19:43:35.961Z,155247.38
2023-08-15T19:46:04.621Z,155184.53
2023-08-15T19:48:32.682Z,155158.34
2023-08-15T19:51:04.109Z,155088.94
2023-08-15T19:53:34.369Z,155056.19
2023-08-15T19:56:03.585Z,155009.09
2023-08-15T19:58:32.562Z,154988.16
2023-08-15T20:01:02.719Z,154962.00
2023-08-15T20:03:31.714Z,154948.91
2023-08-15T20:05:59.962Z,154901.84
2023-08-15T20:08:28.039Z,154901.84
2023-08-15T20:10:58.851Z,154938.44
2023-08-15T20:13:27.045Z,154893.97
2023-08-15T20:15:58.976Z,154880.88
2023-08-15T20:18:27.271Z,154832.47
2023-08-15T20:21:08.864Z,154842.94
2023-08-15T20:23:45.057Z,154920.13
2023-08-15T20:26:21.532Z,154831.16
2023-08-15T20:28:50.545Z,154786.69
2023-08-15T20:31:18.753Z,154771.00
2023-08-15T20:33:46.912Z,154751.34
2023-08-15T20:36:15.099Z,154776.22
2023-08-15T20:38:43.193Z,154814.13
2023-08-15T20:41:11.205Z,154742.25
2023-08-15T20:43:40.766Z,154771.00
2023-08-15T20:46:09.003Z,154823.28
2023-08-15T20:48:36.853Z,154844.22
2023-08-15T20:51:05.203Z,154845.53
2023-08-15T20:53:33.284Z,154778.84
2023-08-15T20:56:04.038Z,154705.59
2023-08-15T20:58:33.204Z,154699.06
2023-08-15T21:01:05.073Z,154644.09
2023-08-15T21:03:33.095Z,154606.22
2023-08-15T21:06:01.228Z,154593.13
2023-08-15T21:08:30.837Z,154642.81
2023-08-15T21:11:07.177Z,154573.56
2023-08-15T21:13:35.338Z,154569.66
2023-08-15T21:16:04.900Z,154624.53
2023-08-15T21:18:35.581Z,154653.28
2023-08-15T21:21:03.707Z,154606.22
2023-08-15T21:23:33.951Z,154607.53
2023-08-15T21:26:02.219Z,154594.44
2023-08-15T21:28:31.309Z,154595.75
2023-08-15T21:30:59.339Z,154533.03
2023-08-15T21:33:29.035Z,154546.09
2023-08-15T21:35:57.185Z,154478.16
2023-08-15T21:38:25.548Z,154444.16
2023-08-15T21:40:55.574Z,154450.69
2023-08-15T21:43:23.562Z,154444.16
2023-08-15T21:45:52.960Z,154488.59
2023-08-15T21:48:21.511Z,154472.91
2023-08-15T21:50:55.314Z,154523.88
2023-08-15T21:53:23.498Z,154543.50
2023-08-15T21:55:51.631Z,154540.88
2023-08-15T21:58:20.019Z,154611.47
2023-08-15T22:00:48.405Z,154512.16
2023-08-15T22:03:16.357Z,154442.84
2023-08-15T22:05:48.816Z,154493.84
2023-08-15T22:08:18.267Z,154522.56
2023-08-15T22:10:47.604Z,154540.88
2023-08-15T22:13:17.115Z,154452.00
2023-08-15T22:15:46.807Z,154407.59
2023-08-15T22:18:20.500Z,154368.38
2023-08-15T22:20:49.760Z,154408.91
2023-08-15T22:23:19.307Z,154492.53
2023-08-15T22:25:48.741Z,154505.59
2023-08-15T22:28:17.288Z,154512.16
2023-08-15T22:30:46.138Z,154520.00
2023-08-15T22:33:15.553Z,154508.22
2023-08-15T22:35:44.658Z,154508.22
2023-08-15T22:38:12.722Z,154503.00
2023-08-15T22:40:42.557Z,154410.16
2023-08-15T22:43:10.628Z,154329.19
2023-08-15T22:45:43.001Z,154295.25
2023-08-15T22:48:11.379Z,154271.72
2023-08-15T22:50:39.541Z,154257.38
2023-08-15T22:53:07.889Z,154242.94
2023-08-15T22:55:37.638Z,154240.38
2023-08-15T22:58:07.016Z,154273.03
2023-08-15T23:00:34.960Z,154361.81
2023-08-15T23:03:03.057Z,154310.91
2023-08-15T23:05:33.006Z,154262.59
2023-08-15T23:08:01.019Z,154293.94
2023-08-15T23:10:28.979Z,154338.34
2023-08-15T23:12:57.921Z,154344.88
2023-08-15T23:15:27.961Z,154384.06
2023-08-15T23:17:56.470Z,154357.91
2023-08-15T23:20:24.844Z,154295.25
2023-08-15T23:22:52.964Z,154252.13
2023-08-15T23:25:20.957Z,154246.91
2023-08-15T23:27:51.264Z,154185.53
2023-08-15T23:30:21.200Z,154190.72
2023-08-15T23:32:50.967Z,154274.34
2023-08-15T23:35:19.468Z,154326.59
2023-08-15T23:37:49.258Z,154352.72
2023-08-15T23:40:18.035Z,154351.41
2023-08-15T23:42:47.845Z,154321.34
2023-08-15T23:45:17.588Z,154326.59
2023-08-15T23:47:46.305Z,154300.44
2023-08-15T23:50:15.753Z,154262.59
2023-08-15T23:52:43.696Z,154182.94
2023-08-15T23:55:11.855Z,154118.94
2023-08-15T23:57:40.378Z,154086.28
